createdAt,value
2017-05-29T00:00:46.538Z,0
2017-05-29T00:01:56.808Z,0
2017-05-29T00:03:07.080Z,0
2017-05-29T00:04:17.033Z,0
2017-05-29T00:05:26.984Z,0
2017-05-29T00:06:36.625Z,0
2017-05-29T00:07:46.904Z,0
2017-05-29T00:08:56.862Z,0
2017-05-29T00:10:06.815Z,0
2017-05-29T00:11:16.764Z,0
2017-05-29T00:12:26.723Z,0
2017-05-29T00:13:36.992Z,0
2017-05-29T00:14:47.265Z,0
2017-05-29T00:15:57.530Z,0
2017-05-29T00:17:07.164Z,0
2017-05-29T00:18:17.123Z,0
2017-05-29T00:19:27.081Z,0
2017-05-29T00:20:37.345Z,0
2017-05-29T00:21:47.613Z,0
2017-05-29T00:22:57.258Z,0
2017-05-29T00:24:06.894Z,0
2017-05-29T00:25:16.527Z,0
2017-05-29T00:26:26.487Z,0
2017-05-29T00:27:36.757Z,0
2017-05-29T00:28:47.029Z,0
2017-05-29T00:29:57.299Z,0
2017-05-29T00:31:06.939Z,0
2017-05-29T00:32:16.906Z,0
2017-05-29T00:33:26.865Z,0
2017-05-29T00:34:36.825Z,0
2017-05-29T00:35:47.088Z,0
2017-05-29T00:36:57.360Z,0
2017-05-29T00:38:07.626Z,0
2017-05-29T00:39:17.268Z,0
2017-05-29T00:40:27.220Z,0
2017-05-29T00:41:37.180Z,0
2017-05-29T00:42:47.453Z,0
2017-05-29T00:43:57.720Z,0
2017-05-29T00:45:07.364Z,0
2017-05-29T00:46:17.321Z,0
2017-05-29T00:47:27.275Z,0
2017-05-29T00:48:36.914Z,0
2017-05-29T00:49:46.876Z,0
2017-05-29T00:50:57.152Z,0
2017-05-29T00:52:06.479Z,0
2017-05-29T00:53:16.746Z,0
2017-05-29T00:54:26.394Z,0
2017-05-29T00:55:36.361Z,0
2017-05-29T00:56:46.632Z,0
2017-05-29T00:57:56.276Z,0
2017-05-29T00:59:06.230Z,0
2017-05-29T01:00:16.500Z,0
2017-05-29T01:01:26.454Z,0
2017-05-29T01:02:36.095Z,0
2017-05-29T01:03:46.070Z,0
2017-05-29T01:04:56.341Z,0
2017-05-29T01:06:06.296Z,0
2017-05-29T01:07:16.570Z,0
2017-05-29T01:08:25.910Z,0
2017-05-29T01:09:36.183Z,0
2017-05-29T01:10:46.458Z,0
2017-05-29T01:11:56.739Z,0
2017-05-29T01:13:07.008Z,0
2017-05-29T01:14:16.334Z,0
2017-05-29T01:15:26.624Z,0
2017-05-29T01:16:36.599Z,0
2017-05-29T01:17:46.552Z,0
2017-05-29T01:18:56.516Z,0
2017-05-29T01:20:06.799Z,0
2017-05-29T01:21:16.752Z,0
2017-05-29T01:22:27.028Z,0
2017-05-29T01:23:36.987Z,0
2017-05-29T01:24:46.944Z,0
2017-05-29T01:25:57.219Z,0
2017-05-29T01:27:06.859Z,0
2017-05-29T01:28:16.823Z,0
2017-05-29T01:29:26.775Z,0
2017-05-29T01:30:37.040Z,0
2017-05-29T01:31:47.316Z,0
2017-05-29T01:32:57.592Z,0
2017-05-29T01:34:07.228Z,0
2017-05-29T01:35:17.177Z,0
2017-05-29T01:36:27.137Z,0
2017-05-29T01:37:37.090Z,0
2017-05-29T01:38:47.359Z,0
2017-05-29T01:39:57.004Z,0
2017-05-29T01:41:07.276Z,0
2017-05-29T01:42:17.233Z,0
2017-05-29T01:43:27.496Z,0
2017-05-29T01:44:37.455Z,0
2017-05-29T01:45:47.743Z,0
2017-05-29T01:46:57.691Z,0
2017-05-29T01:48:07.012Z,0
2017-05-29T01:49:16.652Z,0
2017-05-29T01:50:26.629Z,0
2017-05-29T01:51:36.269Z,0
2017-05-29T01:52:46.289Z,0
2017-05-29T01:53:56.287Z,0
2017-05-29T01:55:05.610Z,0
2017-05-29T01:56:15.243Z,0
2017-05-29T01:57:25.238Z,0
2017-05-29T01:58:34.559Z,0
2017-05-29T01:59:44.509Z,0
2017-05-29T02:00:54.803Z,0
2017-05-29T02:02:04.792Z,0
2017-05-29T02:03:14.750Z,0
2017-05-29T02:04:24.717Z,0
2017-05-29T02:05:34.985Z,0
2017-05-29T02:06:44.931Z,0
2017-05-29T02:07:54.883Z,0
2017-05-29T02:09:04.838Z,0
2017-05-29T02:10:14.474Z,0
2017-05-29T02:11:24.805Z,0
2017-05-29T02:12:35.072Z,0
2017-05-29T02:13:45.344Z,0
2017-05-29T02:14:55.720Z,0
2017-05-29T02:16:06.002Z,0
2017-05-29T02:17:16.280Z,0
2017-05-29T02:18:26.550Z,0
2017-05-29T02:19:36.816Z,0
2017-05-29T02:20:46.780Z,0
2017-05-29T02:21:56.735Z,0
2017-05-29T02:23:06.371Z,0
2017-05-29T02:24:16.638Z,0
2017-05-29T02:25:26.912Z,0
2017-05-29T02:26:36.860Z,0
2017-05-29T02:27:46.812Z,0
2017-05-29T02:28:56.458Z,0
2017-05-29T02:30:06.415Z,0
2017-05-29T02:31:16.056Z,0
2017-05-29T02:32:26.014Z,0
2017-05-29T02:33:35.974Z,0
2017-05-29T02:34:45.932Z,0
2017-05-29T02:35:55.888Z,0
2017-05-29T02:37:05.863Z,0
2017-05-29T02:38:15.511Z,0
2017-05-29T02:39:25.459Z,0
2017-05-29T02:40:35.417Z,0
2017-05-29T02:41:45.743Z,0
2017-05-29T02:42:55.692Z,0
2017-05-29T02:44:05.330Z,0
2017-05-29T02:45:15.171Z,0
2017-05-29T02:46:25.495Z,0
2017-05-29T02:47:35.768Z,0
2017-05-29T02:48:46.032Z,0
2017-05-29T02:49:55.363Z,0
2017-05-29T02:51:05.630Z,0
2017-05-29T02:52:15.895Z,0
2017-05-29T02:53:26.166Z,0
2017-05-29T02:54:36.127Z,0
2017-05-29T02:55:46.400Z,0
2017-05-29T02:56:56.669Z,0
2017-05-29T02:58:06.952Z,0
2017-05-29T02:59:16.901Z,0
2017-05-29T03:00:26.540Z,0
2017-05-29T03:01:36.810Z,0
2017-05-29T03:02:46.780Z,0
2017-05-29T03:03:57.050Z,0
2017-05-29T03:05:07.315Z,0
2017-05-29T03:06:17.582Z,0
2017-05-29T03:07:27.246Z,0
2017-05-29T03:08:36.888Z,0
2017-05-29T03:09:46.851Z,4
2017-05-29T03:10:57.125Z,4
2017-05-29T03:12:07.390Z,4
2017-05-29T03:13:17.347Z,0
2017-05-29T03:14:27.297Z,0
2017-05-29T03:15:36.933Z,0
2017-05-29T03:16:46.605Z,0
2017-05-29T03:17:56.877Z,0
2017-05-29T03:19:05.888Z,0
2017-05-29T03:20:15.841Z,0
2017-05-29T03:21:25.793Z,0
2017-05-29T03:22:36.061Z,0
2017-05-29T03:23:45.381Z,0
2017-05-29T03:24:55.653Z,4
2017-05-29T03:26:05.924Z,4
2017-05-29T03:27:16.188Z,4
2017-05-29T03:28:26.148Z,4
2017-05-29T03:29:36.417Z,0
2017-05-29T03:30:46.369Z,0
2017-05-29T03:31:56.319Z,0
2017-05-29T03:33:06.592Z,0
2017-05-29T03:34:16.547Z,0
2017-05-29T03:35:26.501Z,4
2017-05-29T03:36:36.458Z,0
2017-05-29T03:37:46.407Z,0
2017-05-29T03:38:56.675Z,0
2017-05-29T03:40:06.951Z,0
2017-05-29T03:41:16.594Z,0
2017-05-29T03:42:26.859Z,0
2017-05-29T03:43:36.825Z,4
2017-05-29T03:44:46.838Z,4
2017-05-29T03:45:57.115Z,4
2017-05-29T03:47:07.060Z,4
2017-05-29T03:48:17.333Z,0
2017-05-29T03:49:27.600Z,4
2017-05-29T03:50:37.872Z,4
2017-05-29T03:51:48.147Z,4
2017-05-29T03:52:58.419Z,4
2017-05-29T03:54:08.693Z,4
2017-05-29T03:55:18.966Z,4
2017-05-29T03:56:28.604Z,4
2017-05-29T03:57:38.863Z,4
2017-05-29T03:58:49.130Z,4
2017-05-29T03:59:59.394Z,4
2017-05-29T04:01:09.663Z,4
2017-05-29T04:02:19.617Z,4
2017-05-29T04:03:29.570Z,4
2017-05-29T04:04:39.838Z,4
2017-05-29T04:05:50.100Z,4
2017-05-29T04:06:59.733Z,8
2017-05-29T04:08:10.006Z,4
2017-05-29T04:09:20.019Z,4
2017-05-29T04:10:29.654Z,4
2017-05-29T04:11:39.603Z,4
2017-05-29T04:12:49.877Z,4
2017-05-29T04:14:00.152Z,8
2017-05-29T04:15:10.101Z,4
2017-05-29T04:16:20.063Z,4
2017-05-29T04:17:30.008Z,4
2017-05-29T04:18:39.968Z,4
2017-05-29T04:19:49.607Z,4
2017-05-29T04:20:59.881Z,4
2017-05-29T04:22:09.521Z,4
2017-05-29T04:23:19.844Z,8
2017-05-29T04:24:30.111Z,4
2017-05-29T04:25:39.742Z,4
2017-05-29T04:26:49.703Z,4
2017-05-29T04:27:58.710Z,8
2017-05-29T04:29:08.986Z,8
2017-05-29T04:30:19.260Z,8
2017-05-29T04:31:29.530Z,8
2017-05-29T04:32:39.487Z,8
2017-05-29T04:33:49.439Z,8
2017-05-29T04:34:59.732Z,4
2017-05-29T04:36:09.686Z,8
2017-05-29T04:37:19.321Z,8
2017-05-29T04:38:29.276Z,8
2017-05-29T04:39:38.937Z,8
2017-05-29T04:40:48.259Z,4
2017-05-29T04:41:58.524Z,4
2017-05-29T04:43:08.796Z,8
2017-05-29T04:44:19.070Z,8
2017-05-29T04:45:29.024Z,8
2017-05-29T04:46:38.978Z,8
2017-05-29T04:47:49.242Z,8
2017-05-29T04:48:59.248Z,8
2017-05-29T04:50:08.584Z,8
2017-05-29T04:51:18.227Z,8
2017-05-29T04:52:28.500Z,8
2017-05-29T04:53:38.459Z,12
2017-05-29T04:54:48.726Z,8
2017-05-29T04:55:58.735Z,8
2017-05-29T04:57:09.006Z,8
2017-05-29T04:58:19.278Z,8
2017-05-29T04:59:29.541Z,12
2017-05-29T05:00:39.501Z,12
2017-05-29T05:01:49.775Z,8
2017-05-29T05:02:59.732Z,8
2017-05-29T05:04:09.681Z,8
2017-05-29T05:05:19.947Z,12
2017-05-29T05:06:29.580Z,12
2017-05-29T05:07:39.537Z,12
2017-05-29T05:08:49.807Z,12
2017-05-29T05:09:59.452Z,8
2017-05-29T05:11:09.095Z,12
2017-05-29T05:12:19.367Z,8
2017-05-29T05:13:29.637Z,12
2017-05-29T05:14:39.290Z,12
2017-05-29T05:15:48.935Z,12
2017-05-29T05:16:59.201Z,12
2017-05-29T05:18:09.154Z,12
2017-05-29T05:19:18.481Z,12
2017-05-29T05:20:27.802Z,12
2017-05-29T05:21:37.745Z,12
2017-05-29T05:22:47.383Z,12
2017-05-29T05:23:57.342Z,12
2017-05-29T05:25:06.981Z,12
2017-05-29T05:26:16.940Z,12
2017-05-29T05:27:27.204Z,12
2017-05-29T05:28:36.851Z,8
2017-05-29T05:29:46.812Z,12
2017-05-29T05:30:56.754Z,12
2017-05-29T05:32:07.030Z,12
2017-05-29T05:33:16.678Z,12
2017-05-29T05:34:26.632Z,12
2017-05-29T05:35:36.582Z,16
2017-05-29T05:36:46.868Z,12
2017-05-29T05:37:57.140Z,12
2017-05-29T05:39:07.465Z,12
2017-05-29T05:40:17.431Z,16
2017-05-29T05:41:27.381Z,12
2017-05-29T05:42:37.346Z,12
2017-05-29T05:43:47.311Z,16
2017-05-29T05:44:57.265Z,16
2017-05-29T05:46:07.537Z,12
2017-05-29T05:47:17.227Z,12
2017-05-29T05:48:27.490Z,12
2017-05-29T05:49:37.764Z,12
2017-05-29T05:50:47.716Z,12
2017-05-29T05:51:57.673Z,12
2017-05-29T05:53:07.943Z,12
2017-05-29T05:54:18.210Z,12
2017-05-29T05:55:28.474Z,12
2017-05-29T05:56:38.516Z,12
2017-05-29T05:57:48.810Z,12
2017-05-29T05:58:58.769Z,16
2017-05-29T06:00:08.723Z,16
2017-05-29T06:01:18.999Z,16
2017-05-29T06:02:29.283Z,16
2017-05-29T06:03:39.556Z,16
2017-05-29T06:04:49.513Z,20
2017-05-29T06:05:59.474Z,24
2017-05-29T06:07:09.426Z,40
2017-05-29T06:08:19.380Z,48
2017-05-29T06:09:29.650Z,56
2017-05-29T06:10:39.610Z,68
2017-05-29T06:11:49.885Z,76
2017-05-29T06:13:00.156Z,92
2017-05-29T06:14:10.115Z,96
2017-05-29T06:15:20.380Z,104
2017-05-29T06:16:30.361Z,116
2017-05-29T06:17:39.686Z,120
2017-05-29T06:18:49.959Z,128
2017-05-29T06:19:59.927Z,144
2017-05-29T06:21:09.883Z,100
2017-05-29T06:22:19.522Z,140
2017-05-29T06:23:29.475Z,152
2017-05-29T06:24:39.115Z,148
2017-05-29T06:25:49.069Z,152
2017-05-29T06:26:59.355Z,148
2017-05-29T06:28:09.633Z,148
2017-05-29T06:29:19.907Z,148
2017-05-29T06:30:30.189Z,152
2017-05-29T06:31:40.139Z,152
2017-05-29T06:32:50.414Z,148
2017-05-29T06:34:00.398Z,144
2017-05-29T06:35:10.352Z,152
2017-05-29T06:36:20.630Z,148
2017-05-29T06:37:30.586Z,152
2017-05-29T06:38:40.230Z,140
2017-05-29T06:39:50.492Z,140
2017-05-29T06:40:59.810Z,84
2017-05-29T06:42:09.136Z,156
2017-05-29T06:43:19.404Z,140
2017-05-29T06:44:29.676Z,140
2017-05-29T06:45:39.630Z,140
2017-05-29T06:46:49.585Z,136
2017-05-29T06:47:59.857Z,136
2017-05-29T06:49:09.823Z,136
2017-05-29T06:50:19.770Z,136
2017-05-29T06:51:29.726Z,136
2017-05-29T06:52:39.684Z,132
2017-05-29T06:53:49.649Z,144
2017-05-29T06:54:59.916Z,144
2017-05-29T06:56:09.558Z,140
2017-05-29T06:57:19.200Z,140
2017-05-29T06:58:29.152Z,140
2017-05-29T06:59:39.111Z,136
2017-05-29T07:00:49.401Z,136
2017-05-29T07:01:59.356Z,140
2017-05-29T07:03:09.629Z,136
2017-05-29T07:04:19.900Z,136
2017-05-29T07:05:29.224Z,136
2017-05-29T07:06:38.881Z,132
2017-05-29T07:07:49.155Z,132
2017-05-29T07:08:59.118Z,136
2017-05-29T07:10:09.076Z,132
2017-05-29T07:11:19.344Z,132
2017-05-29T07:12:28.674Z,132
2017-05-29T07:13:38.628Z,128
2017-05-29T07:14:48.901Z,128
2017-05-29T07:15:58.856Z,128
2017-05-29T07:17:09.127Z,128
2017-05-29T07:18:19.399Z,124
2017-05-29T07:19:29.042Z,120
2017-05-29T07:20:39.309Z,120
2017-05-29T07:21:49.268Z,120
2017-05-29T07:22:59.537Z,120
2017-05-29T07:24:09.490Z,120
2017-05-29T07:25:19.440Z,116
2017-05-29T07:26:29.405Z,120
2017-05-29T07:27:39.683Z,120
2017-05-29T07:28:49.634Z,116
2017-05-29T07:29:59.916Z,116
2017-05-29T07:31:10.187Z,116
2017-05-29T07:32:20.206Z,116
2017-05-29T07:33:30.477Z,116
2017-05-29T07:34:40.430Z,112
2017-05-29T07:35:49.755Z,112
2017-05-29T07:36:59.712Z,112
2017-05-29T07:38:09.669Z,112
2017-05-29T07:39:19.320Z,112
2017-05-29T07:40:28.960Z,108
2017-05-29T07:41:39.309Z,108
2017-05-29T07:42:48.950Z,108
2017-05-29T07:43:59.217Z,108
2017-05-29T07:45:09.490Z,108
2017-05-29T07:46:19.444Z,108
2017-05-29T07:47:28.448Z,108
2017-05-29T07:48:38.406Z,100
2017-05-29T07:49:48.684Z,104
2017-05-29T07:50:58.332Z,100
2017-05-29T07:52:07.997Z,100
2017-05-29T07:53:17.641Z,100
2017-05-29T07:54:27.907Z,100
2017-05-29T07:55:37.869Z,100
2017-05-29T07:56:47.823Z,96
2017-05-29T07:57:57.461Z,96
2017-05-29T07:59:07.416Z,96
2017-05-29T08:00:16.741Z,96
2017-05-29T08:01:26.377Z,92
2017-05-29T08:02:36.644Z,92
2017-05-29T08:03:46.598Z,96
2017-05-29T08:04:56.872Z,92
2017-05-29T08:06:07.137Z,92
2017-05-29T08:07:17.104Z,88
2017-05-29T08:08:26.426Z,92
2017-05-29T08:09:36.378Z,92
2017-05-29T08:10:46.708Z,88
2017-05-29T08:11:56.980Z,88
2017-05-29T08:13:06.937Z,84
2017-05-29T08:14:16.581Z,84
2017-05-29T08:15:26.851Z,80
2017-05-29T08:16:36.808Z,80
2017-05-29T08:17:46.768Z,76
2017-05-29T08:18:56.723Z,80
2017-05-29T08:20:06.685Z,80
2017-05-29T08:21:16.331Z,76
2017-05-29T08:22:26.600Z,72
2017-05-29T08:23:36.867Z,76
2017-05-29T08:24:47.136Z,72
2017-05-29T08:25:57.093Z,68
2017-05-29T08:27:06.421Z,68
2017-05-29T08:28:16.393Z,68
2017-05-29T08:29:26.668Z,64
2017-05-29T08:30:36.929Z,64
2017-05-29T08:31:46.571Z,64
2017-05-29T08:32:56.589Z,60
2017-05-29T08:34:05.913Z,60
2017-05-29T08:35:15.546Z,56
2017-05-29T08:36:24.884Z,56
2017-05-29T08:37:34.843Z,56
2017-05-29T08:38:45.112Z,60
2017-05-29T08:39:55.066Z,56
2017-05-29T08:41:05.339Z,56
2017-05-29T08:42:15.293Z,52
2017-05-29T08:43:24.930Z,52
2017-05-29T08:44:35.200Z,56
2017-05-29T08:45:45.157Z,56
2017-05-29T08:46:54.794Z,52
2017-05-29T08:48:04.750Z,52
2017-05-29T08:49:14.713Z,52
2017-05-29T08:50:24.662Z,52
2017-05-29T08:51:34.613Z,48
2017-05-29T08:52:44.298Z,48
2017-05-29T08:53:54.245Z,48
2017-05-29T08:55:03.892Z,44
2017-05-29T08:56:14.164Z,44
2017-05-29T08:57:24.118Z,44
2017-05-29T08:58:33.130Z,44
2017-05-29T08:59:43.395Z,44
2017-05-29T09:00:53.350Z,44
2017-05-29T09:02:03.308Z,40
2017-05-29T09:03:12.991Z,40
2017-05-29T09:04:22.625Z,40
2017-05-29T09:05:32.256Z,40
2017-05-29T09:06:41.893Z,36
2017-05-29T09:07:51.846Z,36
2017-05-29T09:09:02.116Z,40
2017-05-29T09:10:12.389Z,36
2017-05-29T09:11:22.656Z,36
2017-05-29T09:12:32.921Z,36
2017-05-29T09:13:43.197Z,36
2017-05-29T09:14:53.465Z,40
2017-05-29T09:16:03.103Z,36
2017-05-29T09:17:13.049Z,36
2017-05-29T09:18:23.005Z,36
2017-05-29T09:19:32.649Z,36
2017-05-29T09:20:42.607Z,36
2017-05-29T09:21:52.564Z,36
2017-05-29T09:23:02.883Z,36
2017-05-29T09:24:13.156Z,32
2017-05-29T09:25:22.792Z,32
2017-05-29T09:26:33.060Z,32
2017-05-29T09:27:43.324Z,28
2017-05-29T09:28:52.643Z,32
2017-05-29T09:30:02.282Z,32
2017-05-29T09:31:11.925Z,32
2017-05-29T09:32:21.590Z,32
2017-05-29T09:33:31.859Z,32
2017-05-29T09:34:41.812Z,28
2017-05-29T09:35:51.135Z,28
2017-05-29T09:37:01.088Z,32
2017-05-29T09:38:11.049Z,32
2017-05-29T09:39:21.008Z,32
2017-05-29T09:40:30.962Z,28
2017-05-29T09:41:40.914Z,32
2017-05-29T09:42:50.241Z,32
2017-05-29T09:43:59.890Z,28
2017-05-29T09:45:09.842Z,28
2017-05-29T09:46:19.166Z,32
2017-05-29T09:47:28.492Z,28
2017-05-29T09:48:38.451Z,32
2017-05-29T09:49:48.411Z,32
2017-05-29T09:50:58.681Z,24
2017-05-29T09:52:08.316Z,32
2017-05-29T09:53:18.274Z,32
2017-05-29T09:54:28.229Z,28
2017-05-29T09:55:38.510Z,32
2017-05-29T09:56:48.469Z,32
2017-05-29T09:57:58.734Z,28
2017-05-29T09:59:08.703Z,28
2017-05-29T10:00:18.021Z,28
2017-05-29T10:01:27.033Z,28
2017-05-29T10:02:37.298Z,28
2017-05-29T10:03:47.258Z,28
2017-05-29T10:04:56.895Z,28
2017-05-29T10:06:07.184Z,28
2017-05-29T10:07:17.138Z,28
2017-05-29T10:08:27.473Z,28
2017-05-29T10:09:37.443Z,28
2017-05-29T10:10:47.711Z,28
2017-05-29T10:11:57.035Z,28
2017-05-29T10:13:06.678Z,32
2017-05-29T10:14:16.947Z,28
2017-05-29T10:15:27.217Z,24
2017-05-29T10:16:37.167Z,24
2017-05-29T10:17:47.157Z,28
2017-05-29T10:18:57.437Z,28
2017-05-29T10:20:07.080Z,28
2017-05-29T10:21:17.036Z,24
2017-05-29T10:22:27.315Z,24
2017-05-29T10:23:37.265Z,24
2017-05-29T10:24:47.216Z,28
2017-05-29T10:25:57.172Z,28
2017-05-29T10:27:07.130Z,24
2017-05-29T10:28:17.103Z,24
2017-05-29T10:29:26.741Z,24
2017-05-29T10:30:36.382Z,28
2017-05-29T10:31:45.747Z,24
2017-05-29T10:32:56.855Z,24
2017-05-29T10:34:07.683Z,24
2017-05-29T10:35:18.140Z,24
2017-05-29T10:36:29.326Z,20
2017-05-29T10:37:40.534Z,24
2017-05-29T10:38:51.428Z,20
2017-05-29T10:40:02.272Z,24
2017-05-29T10:41:13.083Z,20
2017-05-29T10:42:23.827Z,24
2017-05-29T10:43:34.994Z,20
2017-05-29T10:44:45.514Z,20
2017-05-29T10:45:56.308Z,20
2017-05-29T10:47:07.220Z,20
2017-05-29T10:48:16.985Z,20
2017-05-29T10:49:27.404Z,20
2017-05-29T10:50:37.864Z,20
2017-05-29T10:51:48.625Z,20
2017-05-29T10:52:58.659Z,20
2017-05-29T10:54:08.680Z,20
2017-05-29T10:55:19.396Z,20
2017-05-29T10:56:30.015Z,16
2017-05-29T10:57:40.533Z,20
2017-05-29T10:58:50.648Z,16
2017-05-29T11:00:01.009Z,16
2017-05-29T11:01:11.118Z,20
2017-05-29T11:02:21.664Z,20
2017-05-29T11:03:31.805Z,16
2017-05-29T11:04:41.659Z,20
2017-05-29T11:05:51.828Z,20
2017-05-29T11:07:02.317Z,20
2017-05-29T11:08:12.528Z,20
2017-05-29T11:09:23.512Z,16
2017-05-29T11:10:34.356Z,16
2017-05-29T11:11:45.571Z,20
2017-05-29T11:12:56.397Z,16
2017-05-29T11:14:06.718Z,16
2017-05-29T11:15:17.748Z,16
2017-05-29T11:16:28.031Z,16
2017-05-29T11:17:39.018Z,16
2017-05-29T11:18:50.012Z,16
2017-05-29T11:20:00.731Z,16
2017-05-29T11:21:11.426Z,16
2017-05-29T11:22:21.682Z,12
2017-05-29T11:23:32.284Z,16
2017-05-29T11:24:43.186Z,16
2017-05-29T11:25:54.292Z,16
2017-05-29T11:27:05.296Z,16
2017-05-29T11:28:16.001Z,16
2017-05-29T11:29:27.095Z,16
2017-05-29T11:30:37.838Z,12
2017-05-29T11:31:48.906Z,16
2017-05-29T11:32:59.884Z,16
2017-05-29T11:34:10.304Z,12
2017-05-29T11:35:20.238Z,12
2017-05-29T11:36:30.423Z,16
2017-05-29T11:37:40.924Z,12
2017-05-29T11:38:51.412Z,16
2017-05-29T11:40:01.919Z,16
2017-05-29T11:41:12.556Z,16
2017-05-29T11:42:23.013Z,12
2017-05-29T11:43:34.049Z,16
2017-05-29T11:44:45.013Z,12
2017-05-29T11:45:55.974Z,12
2017-05-29T11:47:06.830Z,16
2017-05-29T11:48:17.128Z,12
2017-05-29T11:49:27.443Z,16
2017-05-29T11:50:37.659Z,16
2017-05-29T11:51:48.103Z,16
2017-05-29T11:52:58.310Z,16
2017-05-29T11:54:08.816Z,16
2017-05-29T11:55:19.049Z,16
2017-05-29T11:56:28.905Z,16
2017-05-29T11:57:38.430Z,16
2017-05-29T11:58:48.993Z,8
2017-05-29T11:59:58.845Z,12
2017-05-29T12:01:09.331Z,12
2017-05-29T12:02:19.415Z,12
2017-05-29T12:03:29.525Z,12
2017-05-29T12:04:39.689Z,12
2017-05-29T12:05:50.088Z,12
2017-05-29T12:07:00.374Z,12
2017-05-29T12:08:10.010Z,16
2017-05-29T12:09:19.333Z,16
2017-05-29T12:10:28.966Z,16
2017-05-29T12:11:38.927Z,16
2017-05-29T12:12:48.881Z,12
2017-05-29T12:13:58.829Z,12
2017-05-29T12:15:09.093Z,16
2017-05-29T12:16:19.047Z,12
2017-05-29T12:17:29.316Z,12
2017-05-29T12:18:38.639Z,16
2017-05-29T12:19:48.582Z,16
2017-05-29T12:20:58.851Z,16
2017-05-29T12:22:08.822Z,16
2017-05-29T12:23:19.089Z,16
2017-05-29T12:24:29.050Z,16
2017-05-29T12:25:39.333Z,12
2017-05-29T12:26:49.288Z,16
2017-05-29T12:27:59.236Z,16
2017-05-29T12:29:08.879Z,16
2017-05-29T12:30:19.148Z,12
2017-05-29T12:31:29.101Z,16
2017-05-29T12:32:38.738Z,12
2017-05-29T12:33:48.692Z,16
2017-05-29T12:34:58.650Z,12
2017-05-29T12:36:08.602Z,12
2017-05-29T12:37:18.255Z,12
2017-05-29T12:38:27.575Z,12
2017-05-29T12:39:37.848Z,12
2017-05-29T12:40:48.113Z,16
2017-05-29T12:41:58.066Z,16
2017-05-29T12:43:08.017Z,16
2017-05-29T12:44:17.660Z,12
2017-05-29T12:45:27.630Z,16
2017-05-29T12:46:37.268Z,12
2017-05-29T12:47:46.594Z,12
2017-05-29T12:48:56.544Z,12
2017-05-29T12:50:06.190Z,16
2017-05-29T12:51:16.147Z,16
2017-05-29T12:52:26.412Z,12
2017-05-29T12:53:36.688Z,16
2017-05-29T12:54:46.644Z,16
2017-05-29T12:55:56.604Z,28
2017-05-29T12:57:06.564Z,24
2017-05-29T12:58:16.834Z,24
2017-05-29T12:59:26.475Z,28
2017-05-29T13:00:36.437Z,28
2017-05-29T13:01:46.387Z,24
2017-05-29T13:02:56.028Z,24
2017-05-29T13:04:06.303Z,20
2017-05-29T13:05:16.276Z,16
2017-05-29T13:06:26.227Z,12
2017-05-29T13:07:36.179Z,12
2017-05-29T13:08:46.129Z,16
2017-05-29T13:09:56.081Z,20
2017-05-29T13:11:06.037Z,16
2017-05-29T13:12:15.687Z,20
2017-05-29T13:13:25.640Z,32
2017-05-29T13:14:34.967Z,20
2017-05-29T13:15:44.608Z,20
2017-05-29T13:16:54.890Z,20
2017-05-29T13:18:05.168Z,28
2017-05-29T13:19:15.123Z,28
2017-05-29T13:20:24.448Z,32
2017-05-29T13:21:34.719Z,28
2017-05-29T13:22:44.990Z,24
2017-05-29T13:23:55.255Z,24
2017-05-29T13:25:05.571Z,32
2017-05-29T13:26:15.536Z,32
2017-05-29T13:27:25.800Z,32
2017-05-29T13:28:35.798Z,32
2017-05-29T13:29:45.433Z,32
2017-05-29T13:30:55.391Z,36
2017-05-29T13:32:05.340Z,32
2017-05-29T13:33:15.295Z,36
2017-05-29T13:34:25.564Z,32
2017-05-29T13:35:35.516Z,32
2017-05-29T13:36:45.793Z,32
2017-05-29T13:37:55.436Z,32
2017-05-29T13:39:05.392Z,32
2017-05-29T13:40:15.032Z,32
2017-05-29T13:41:24.685Z,28
2017-05-29T13:42:34.958Z,28
2017-05-29T13:43:44.903Z,32
2017-05-29T13:44:55.169Z,36
2017-05-29T13:46:04.492Z,32
2017-05-29T13:47:14.763Z,32
2017-05-29T13:48:24.723Z,32
2017-05-29T13:49:34.677Z,32
2017-05-29T13:50:44.639Z,36
2017-05-29T13:51:54.946Z,32
2017-05-29T13:53:05.211Z,32
2017-05-29T13:54:15.162Z,36
2017-05-29T13:55:24.494Z,36
2017-05-29T13:56:34.444Z,36
2017-05-29T13:57:44.403Z,32
2017-05-29T13:58:54.037Z,36
2017-05-29T14:00:04.312Z,36
2017-05-29T14:01:14.584Z,36
2017-05-29T14:02:24.917Z,36
2017-05-29T14:03:35.181Z,32
2017-05-29T14:04:45.443Z,36
2017-05-29T14:05:55.400Z,32
2017-05-29T14:07:05.356Z,32
2017-05-29T14:08:14.997Z,36
2017-05-29T14:09:24.957Z,32
2017-05-29T14:10:35.223Z,36
2017-05-29T14:11:45.207Z,36
2017-05-29T14:12:55.477Z,32
2017-05-29T14:14:05.430Z,36
2017-05-29T14:15:15.436Z,36
2017-05-29T14:16:25.384Z,36
2017-05-29T14:17:35.020Z,36
2017-05-29T14:18:44.677Z,36
2017-05-29T14:19:54.633Z,36
2017-05-29T14:21:04.916Z,36
2017-05-29T14:22:14.591Z,36
2017-05-29T14:23:24.232Z,32
2017-05-29T14:24:34.189Z,40
2017-05-29T14:25:44.466Z,36
2017-05-29T14:26:54.102Z,28
2017-05-29T14:28:03.113Z,40
2017-05-29T14:29:13.384Z,32
2017-05-29T14:30:22.710Z,40
2017-05-29T14:31:32.980Z,40
2017-05-29T14:32:42.959Z,40
2017-05-29T14:33:52.906Z,40
2017-05-29T14:35:02.852Z,44
2017-05-29T14:36:12.814Z,28
2017-05-29T14:37:22.759Z,16
2017-05-29T14:38:33.028Z,12
2017-05-29T14:39:43.294Z,12
2017-05-29T14:40:52.935Z,12
2017-05-29T14:42:03.215Z,16
2017-05-29T14:43:12.863Z,16
2017-05-29T14:44:22.497Z,20
2017-05-29T14:45:32.775Z,16
2017-05-29T14:46:43.051Z,20
2017-05-29T14:47:53.008Z,16
2017-05-29T14:49:03.276Z,16
2017-05-29T14:50:12.607Z,20
2017-05-29T14:51:22.873Z,16
2017-05-29T14:52:32.824Z,20
2017-05-29T14:53:42.782Z,20
2017-05-29T14:54:52.742Z,12
2017-05-29T14:56:03.009Z,16
2017-05-29T14:57:13.282Z,16
2017-05-29T14:58:23.546Z,16
2017-05-29T14:59:33.811Z,16
2017-05-29T15:00:43.770Z,16
2017-05-29T15:01:53.726Z,12
2017-05-29T15:03:03.371Z,12
2017-05-29T15:04:13.641Z,12
2017-05-29T15:05:23.910Z,12
2017-05-29T15:06:34.182Z,8
2017-05-29T15:07:43.816Z,8
2017-05-29T15:08:54.094Z,8
2017-05-29T15:10:04.359Z,8
2017-05-29T15:11:14.629Z,12
2017-05-29T15:12:24.595Z,12
2017-05-29T15:13:34.860Z,12
2017-05-29T15:14:44.811Z,12
2017-05-29T15:15:54.762Z,16
2017-05-29T15:17:04.405Z,12
2017-05-29T15:18:14.365Z,12
2017-05-29T15:19:24.320Z,12
2017-05-29T15:20:34.595Z,12
2017-05-29T15:21:44.858Z,12
2017-05-29T15:22:54.813Z,12
2017-05-29T15:24:05.083Z,12
2017-05-29T15:25:15.034Z,12
2017-05-29T15:26:24.360Z,12
2017-05-29T15:27:34.308Z,12
2017-05-29T15:28:44.264Z,12
2017-05-29T15:29:54.538Z,12
2017-05-29T15:31:04.486Z,12
2017-05-29T15:32:14.760Z,12
2017-05-29T15:33:25.025Z,12
2017-05-29T15:34:34.734Z,12
2017-05-29T15:35:44.379Z,12
2017-05-29T15:36:54.651Z,12
2017-05-29T15:38:04.600Z,12
2017-05-29T15:39:14.869Z,12
2017-05-29T15:40:24.832Z,12
2017-05-29T15:41:35.105Z,12
2017-05-29T15:42:44.748Z,12
2017-05-29T15:43:55.019Z,12
2017-05-29T15:45:04.979Z,12
2017-05-29T15:46:15.247Z,12
2017-05-29T15:47:24.891Z,12
2017-05-29T15:48:35.168Z,12
2017-05-29T15:49:44.805Z,12
2017-05-29T15:50:54.506Z,12
2017-05-29T15:52:03.829Z,12
2017-05-29T15:53:14.095Z,12
2017-05-29T15:54:24.060Z,12
2017-05-29T15:55:34.016Z,16
2017-05-29T15:56:43.967Z,12
2017-05-29T15:57:53.935Z,16
2017-05-29T15:59:03.575Z,12
2017-05-29T16:00:13.528Z,12
2017-05-29T16:01:23.162Z,12
2017-05-29T16:02:33.120Z,8
2017-05-29T16:03:43.392Z,8
2017-05-29T16:04:53.731Z,12
2017-05-29T16:06:03.688Z,8
2017-05-29T16:07:14.408Z,12
2017-05-29T16:08:25.353Z,12
2017-05-29T16:09:35.814Z,16
2017-05-29T16:10:46.582Z,12
2017-05-29T16:11:56.898Z,16
2017-05-29T16:13:06.905Z,16
2017-05-29T16:14:17.556Z,20
2017-05-29T16:15:28.185Z,16
2017-05-29T16:16:38.473Z,16
2017-05-29T16:17:48.749Z,20
2017-05-29T16:18:59.416Z,20
2017-05-29T16:20:09.414Z,20
2017-05-29T16:21:19.715Z,20
2017-05-29T16:22:29.484Z,20
2017-05-29T16:23:39.795Z,20
2017-05-29T16:24:50.202Z,16
2017-05-29T16:26:00.372Z,16
2017-05-29T16:27:10.861Z,16
2017-05-29T16:28:20.892Z,16
2017-05-29T16:29:30.848Z,16
2017-05-29T16:30:41.115Z,16
2017-05-29T16:31:51.060Z,16
2017-05-29T16:33:01.373Z,16
2017-05-29T16:34:11.647Z,16
2017-05-29T16:35:21.922Z,12
2017-05-29T16:36:31.883Z,16
2017-05-29T16:37:42.184Z,12
2017-05-29T16:38:51.825Z,12
2017-05-29T16:40:02.091Z,16
2017-05-29T16:41:12.360Z,12
2017-05-29T16:42:22.314Z,12
2017-05-29T16:43:31.959Z,12
2017-05-29T16:44:42.248Z,12
2017-05-29T16:45:52.530Z,12
2017-05-29T16:47:02.801Z,8